sensor_id;sensor_type;location;lat;lon;timestamp;P1;durP1;ratioP1;P2;durP2;ratioP2
1214;SDS011;597;51.998;5.880;2022-07-29T00:00:40;4.60;;;2.73;;
1214;SDS011;597;51.998;5.880;2022-07-29T00:03:05;9.20;;;2.50;;
1214;SDS011;597;51.998;5.880;2022-07-29T00:05:30;7.33;;;3.00;;
1214;SDS011;597;51.998;5.880;2022-07-29T00:07:56;5.00;;;2.97;;
1214;SDS011;597;51.998;5.880;2022-07-29T00:10:21;6.70;;;2.73;;
1214;SDS011;597;51.998;5.880;2022-07-29T00:12:46;6.37;;;3.00;;
1214;SDS011;597;51.998;5.880;2022-07-29T00:15:11;4.60;;;2.53;;
1214;SDS011;597;51.998;5.880;2022-07-29T00:17:37;7.07;;;3.03;;
1214;SDS011;597;51.998;5.880;2022-07-29T00:20:02;3.40;;;2.53;;
1214;SDS011;597;51.998;5.880;2022-07-29T00:22:28;5.30;;;2.80;;
1214;SDS011;597;51.998;5.880;2022-07-29T00:24:53;5.03;;;2.90;;
1214;SDS011;597;51.998;5.880;2022-07-29T00:27:18;4.30;;;3.23;;
1214;SDS011;597;51.998;5.880;2022-07-29T00:29:43;3.53;;;2.40;;
1214;SDS011;597;51.998;5.880;2022-07-29T00:32:08;4.27;;;2.77;;
1214;SDS011;597;51.998;5.880;2022-07-29T00:34:34;4.80;;;3.33;;
1214;SDS011;597;51.998;5.880;2022-07-29T00:37:18;4.80;;;2.90;;
1214;SDS011;597;51.998;5.880;2022-07-29T00:39:43;5.50;;;3.27;;
1214;SDS011;597;51.998;5.880;2022-07-29T00:42:08;6.83;;;3.00;;
1214;SDS011;597;51.998;5.880;2022-07-29T00:44:38;8.80;;;3.33;;
1214;SDS011;597;51.998;5.880;2022-07-29T00:47:03;3.97;;;2.37;;
1214;SDS011;597;51.998;5.880;2022-07-29T00:49:29;6.53;;;3.20;;
1214;SDS011;597;51.998;5.880;2022-07-29T00:51:54;8.23;;;3.50;;
1214;SDS011;597;51.998;5.880;2022-07-29T00:54:19;4.60;;;3.60;;
1214;SDS011;597;51.998;5.880;2022-07-29T00:56:45;3.07;;;2.77;;
1214;SDS011;597;51.998;5.880;2022-07-29T00:59:10;5.07;;;2.80;;
1214;SDS011;597;51.998;5.880;2022-07-29T01:01:35;3.50;;;2.73;;
1214;SDS011;597;51.998;5.880;2022-07-29T01:04:00;2.53;;;2.27;;
1214;SDS011;597;51.998;5.880;2022-07-29T01:06:26;4.93;;;2.67;;
1214;SDS011;597;51.998;5.880;2022-07-29T01:08:51;6.60;;;3.57;;
1214;SDS011;597;51.998;5.880;2022-07-29T01:11:17;5.00;;;3.20;;
1214;SDS011;597;51.998;5.880;2022-07-29T01:13:43;5.73;;;3.00;;
1214;SDS011;597;51.998;5.880;2022-07-29T01:16:21;4.80;;;3.50;;
1214;SDS011;597;51.998;5.880;2022-07-29T01:18:49;3.50;;;2.80;;
1214;SDS011;597;51.998;5.880;2022-07-29T01:21:39;5.17;;;3.27;;
1214;SDS011;597;51.998;5.880;2022-07-29T01:24:23;4.23;;;3.03;;
1214;SDS011;597;51.998;5.880;2022-07-29T01:27:06;6.90;;;3.60;;
1214;SDS011;597;51.998;5.880;2022-07-29T01:29:52;5.23;;;3.63;;
1214;SDS011;597;51.998;5.880;2022-07-29T01:32:19;5.47;;;3.27;;
1214;SDS011;597;51.998;5.880;2022-07-29T01:34:48;5.47;;;3.27;;
1214;SDS011;597;51.998;5.880;2022-07-29T01:37:28;5.43;;;3.40;;
1214;SDS011;597;51.998;5.880;2022-07-29T01:39:55;5.83;;;3.53;;
1214;SDS011;597;51.998;5.880;2022-07-29T01:42:27;7.93;;;3.13;;
1214;SDS011;597;51.998;5.880;2022-07-29T01:47:19;4.33;;;2.90;;
1214;SDS011;597;51.998;5.880;2022-07-29T01:49:46;9.30;;;3.83;;
1214;SDS011;597;51.998;5.880;2022-07-29T01:52:16;4.70;;;3.40;;
1214;SDS011;597;51.998;5.880;2022-07-29T01:54:45;5.20;;;3.43;;
1214;SDS011;597;51.998;5.880;2022-07-29T01:57:13;3.67;;;2.90;;
1214;SDS011;597;51.998;5.880;2022-07-29T01:59:38;6.90;;;2.60;;
1214;SDS011;597;51.998;5.880;2022-07-29T02:02:05;4.13;;;3.40;;
1214;SDS011;597;51.998;5.880;2022-07-29T02:04:33;5.73;;;3.50;;
1214;SDS011;597;51.998;5.880;2022-07-29T02:07:01;5.03;;;3.27;;
1214;SDS011;597;51.998;5.880;2022-07-29T02:09:27;8.07;;;4.30;;
1214;SDS011;597;51.998;5.880;2022-07-29T02:11:53;12.90;;;3.07;;
1214;SDS011;597;51.998;5.880;2022-07-29T02:14:21;4.47;;;3.30;;
1214;SDS011;597;51.998;5.880;2022-07-29T02:16:48;7.37;;;3.57;;
1214;SDS011;597;51.998;5.880;2022-07-29T02:19:16;6.33;;;3.50;;
1214;SDS011;597;51.998;5.880;2022-07-29T02:21:42;5.33;;;3.57;;
1214;SDS011;597;51.998;5.880;2022-07-29T02:24:09;5.60;;;3.50;;
1214;SDS011;597;51.998;5.880;2022-07-29T02:26:36;7.20;;;4.17;;
1214;SDS011;597;51.998;5.880;2022-07-29T02:29:02;5.73;;;3.20;;
1214;SDS011;597;51.998;5.880;2022-07-29T02:31:29;7.30;;;3.60;;
1214;SDS011;597;51.998;5.880;2022-07-29T02:33:55;9.30;;;4.47;;
1214;SDS011;597;51.998;5.880;2022-07-29T02:36:21;7.07;;;4.17;;
1214;SDS011;597;51.998;5.880;2022-07-29T02:38:46;6.47;;;3.47;;
1214;SDS011;597;51.998;5.880;2022-07-29T02:41:28;7.80;;;3.40;;
1214;SDS011;597;51.998;5.880;2022-07-29T02:43:55;4.40;;;4.00;;
1214;SDS011;597;51.998;5.880;2022-07-29T02:46:27;6.30;;;3.50;;
1214;SDS011;597;51.998;5.880;2022-07-29T02:51:54;8.83;;;4.00;;
1214;SDS011;597;51.998;5.880;2022-07-29T02:54:21;5.53;;;3.70;;
1214;SDS011;597;51.998;5.880;2022-07-29T02:56:47;4.73;;;3.73;;
1214;SDS011;597;51.998;5.880;2022-07-29T02:59:13;7.63;;;4.30;;
1214;SDS011;597;51.998;5.880;2022-07-29T03:01:42;4.27;;;3.87;;
1214;SDS011;597;51.998;5.880;2022-07-29T03:04:08;8.50;;;4.17;;
1214;SDS011;597;51.998;5.880;2022-07-29T03:06:34;5.63;;;4.07;;
1214;SDS011;597;51.998;5.880;2022-07-29T03:09:00;5.50;;;3.93;;
1214;SDS011;597;51.998;5.880;2022-07-29T03:11:25;6.87;;;4.60;;
1214;SDS011;597;51.998;5.880;2022-07-29T03:13:51;6.53;;;4.53;;
1214;SDS011;597;51.998;5.880;2022-07-29T03:16:18;5.70;;;5.10;;
1214;SDS011;597;51.998;5.880;2022-07-29T03:18:43;5.20;;;4.27;;
1214;SDS011;597;51.998;5.880;2022-07-29T03:21:08;5.60;;;4.80;;
1214;SDS011;597;51.998;5.880;2022-07-29T03:23:33;7.37;;;4.33;;
1214;SDS011;597;51.998;5.880;2022-07-29T03:25:59;7.60;;;4.50;;
1214;SDS011;597;51.998;5.880;2022-07-29T03:28:24;5.40;;;4.50;;
1214;SDS011;597;51.998;5.880;2022-07-29T03:30:49;6.50;;;4.10;;
1214;SDS011;597;51.998;5.880;2022-07-29T03:33:15;7.30;;;4.40;;
1214;SDS011;597;51.998;5.880;2022-07-29T03:35:40;6.07;;;4.83;;
1214;SDS011;597;51.998;5.880;2022-07-29T03:38:05;8.90;;;6.20;;
1214;SDS011;597;51.998;5.880;2022-07-29T03:40:31;8.37;;;5.30;;
1214;SDS011;597;51.998;5.880;2022-07-29T03:42:57;5.50;;;5.00;;
1214;SDS011;597;51.998;5.880;2022-07-29T03:45:24;5.50;;;4.30;;
1214;SDS011;597;51.998;5.880;2022-07-29T03:47:51;6.77;;;5.73;;
1214;SDS011;597;51.998;5.880;2022-07-29T03:50:18;9.03;;;5.30;;
1214;SDS011;597;51.998;5.880;2022-07-29T03:52:45;9.30;;;6.17;;
1214;SDS011;597;51.998;5.880;2022-07-29T03:55:10;10.57;;;6.17;;
1214;SDS011;597;51.998;5.880;2022-07-29T03:57:35;13.63;;;5.20;;
1214;SDS011;597;51.998;5.880;2022-07-29T04:00:02;10.17;;;5.70;;
1214;SDS011;597;51.998;5.880;2022-07-29T04:02:29;11.10;;;5.80;;
1214;SDS011;597;51.998;5.880;2022-07-29T04:04:54;16.17;;;6.77;;
1214;SDS011;597;51.998;5.880;2022-07-29T04:07:19;10.57;;;6.57;;
1214;SDS011;597;51.998;5.880;2022-07-29T04:09:45;6.20;;;5.60;;
1214;SDS011;597;51.998;5.880;2022-07-29T04:12:10;7.33;;;6.10;;
1214;SDS011;597;51.998;5.880;2022-07-29T04:14:35;7.30;;;6.40;;
1214;SDS011;597;51.998;5.880;2022-07-29T04:17:01;7.80;;;6.10;;
1214;SDS011;597;51.998;5.880;2022-07-29T04:19:26;7.47;;;5.83;;
1214;SDS011;597;51.998;5.880;2022-07-29T04:21:52;10.37;;;6.00;;
1214;SDS011;597;51.998;5.880;2022-07-29T04:24:17;9.17;;;6.37;;
1214;SDS011;597;51.998;5.880;2022-07-29T04:26:42;8.60;;;6.07;;
1214;SDS011;597;51.998;5.880;2022-07-29T04:29:08;7.13;;;6.43;;
1214;SDS011;597;51.998;5.880;2022-07-29T04:31:33;8.87;;;6.17;;
1214;SDS011;597;51.998;5.880;2022-07-29T04:33:58;6.80;;;6.10;;
1214;SDS011;597;51.998;5.880;2022-07-29T04:36:23;7.23;;;6.53;;
1214;SDS011;597;51.998;5.880;2022-07-29T04:38:48;10.00;;;6.37;;
1214;SDS011;597;51.998;5.880;2022-07-29T04:41:14;7.17;;;5.90;;
1214;SDS011;597;51.998;5.880;2022-07-29T04:43:39;7.90;;;6.50;;
1214;SDS011;597;51.998;5.880;2022-07-29T04:46:05;8.90;;;6.40;;
1214;SDS011;597;51.998;5.880;2022-07-29T04:48:31;12.53;;;7.23;;
1214;SDS011;597;51.998;5.880;2022-07-29T04:50:56;6.80;;;6.00;;
1214;SDS011;597;51.998;5.880;2022-07-29T04:53:21;9.17;;;6.07;;
1214;SDS011;597;51.998;5.880;2022-07-29T04:55:47;10.33;;;6.17;;
1214;SDS011;597;51.998;5.880;2022-07-29T04:58:12;16.47;;;7.70;;
1214;SDS011;597;51.998;5.880;2022-07-29T05:00:37;7.47;;;6.60;;
1214;SDS011;597;51.998;5.880;2022-07-29T05:03:03;9.53;;;6.63;;
1214;SDS011;597;51.998;5.880;2022-07-29T05:05:28;7.13;;;6.40;;
1214;SDS011;597;51.998;5.880;2022-07-29T05:07:53;8.37;;;6.07;;
1214;SDS011;597;51.998;5.880;2022-07-29T05:10:18;6.70;;;6.00;;
1214;SDS011;597;51.998;5.880;2022-07-29T05:12:44;10.20;;;6.27;;
1214;SDS011;597;51.998;5.880;2022-07-29T05:15:09;12.30;;;6.40;;
1214;SDS011;597;51.998;5.880;2022-07-29T05:17:34;8.70;;;6.10;;
1214;SDS011;597;51.998;5.880;2022-07-29T05:19:59;11.97;;;6.60;;
1214;SDS011;597;51.998;5.880;2022-07-29T05:22:25;10.60;;;6.50;;
1214;SDS011;597;51.998;5.880;2022-07-29T05:24:50;8.87;;;6.93;;
1214;SDS011;597;51.998;5.880;2022-07-29T05:27:15;6.87;;;6.27;;
1214;SDS011;597;51.998;5.880;2022-07-29T05:29:40;8.37;;;4.93;;
1214;SDS011;597;51.998;5.880;2022-07-29T05:32:05;10.60;;;6.30;;
1214;SDS011;597;51.998;5.880;2022-07-29T05:34:31;7.20;;;6.03;;
1214;SDS011;597;51.998;5.880;2022-07-29T05:36:56;6.20;;;5.30;;
1214;SDS011;597;51.998;5.880;2022-07-29T05:39:22;7.87;;;6.10;;
1214;SDS011;597;51.998;5.880;2022-07-29T05:41:47;10.27;;;6.00;;
1214;SDS011;597;51.998;5.880;2022-07-29T05:44:12;7.40;;;5.73;;
1214;SDS011;597;51.998;5.880;2022-07-29T05:46:38;9.93;;;5.27;;
1214;SDS011;597;51.998;5.880;2022-07-29T05:49:03;7.63;;;5.80;;
1214;SDS011;597;51.998;5.880;2022-07-29T05:51:29;6.30;;;5.70;;
1214;SDS011;597;51.998;5.880;2022-07-29T05:53:55;10.00;;;5.50;;
1214;SDS011;597;51.998;5.880;2022-07-29T05:56:20;9.90;;;5.97;;
1214;SDS011;597;51.998;5.880;2022-07-29T05:58:45;8.33;;;5.30;;
1214;SDS011;597;51.998;5.880;2022-07-29T06:01:10;8.03;;;6.33;;
1214;SDS011;597;51.998;5.880;2022-07-29T06:03:36;7.23;;;6.03;;
1214;SDS011;597;51.998;5.880;2022-07-29T06:06:02;8.07;;;5.40;;
1214;SDS011;597;51.998;5.880;2022-07-29T06:08:28;8.87;;;5.57;;
1214;SDS011;597;51.998;5.880;2022-07-29T06:10:53;7.30;;;5.60;;
1214;SDS011;597;51.998;5.880;2022-07-29T06:13:18;10.47;;;5.63;;
1214;SDS011;597;51.998;5.880;2022-07-29T06:15:43;7.63;;;6.47;;
1214;SDS011;597;51.998;5.880;2022-07-29T06:18:09;8.17;;;7.37;;
1214;SDS011;597;51.998;5.880;2022-07-29T06:20:35;10.53;;;6.50;;
1214;SDS011;597;51.998;5.880;2022-07-29T06:23:00;7.50;;;5.90;;
1214;SDS011;597;51.998;5.880;2022-07-29T06:25:25;9.87;;;6.57;;
1214;SDS011;597;51.998;5.880;2022-07-29T06:27:51;7.63;;;5.70;;
1214;SDS011;597;51.998;5.880;2022-07-29T06:30:17;9.43;;;6.60;;
1214;SDS011;597;51.998;5.880;2022-07-29T06:32:42;9.37;;;5.87;;
1214;SDS011;597;51.998;5.880;2022-07-29T06:35:07;5.70;;;5.13;;
1214;SDS011;597;51.998;5.880;2022-07-29T06:37:32;9.60;;;6.17;;
1214;SDS011;597;51.998;5.880;2022-07-29T06:39:58;8.80;;;5.83;;
1214;SDS011;597;51.998;5.880;2022-07-29T06:42:42;6.93;;;5.40;;
1214;SDS011;597;51.998;5.880;2022-07-29T06:45:07;8.80;;;5.13;;
1214;SDS011;597;51.998;5.880;2022-07-29T06:47:33;8.93;;;5.60;;
1214;SDS011;597;51.998;5.880;2022-07-29T06:49:58;8.30;;;5.70;;
1214;SDS011;597;51.998;5.880;2022-07-29T06:52:23;5.13;;;4.53;;
1214;SDS011;597;51.998;5.880;2022-07-29T06:54:50;12.77;;;5.27;;
1214;SDS011;597;51.998;5.880;2022-07-29T06:57:15;6.70;;;5.43;;
1214;SDS011;597;51.998;5.880;2022-07-29T06:59:40;6.17;;;4.97;;
1214;SDS011;597;51.998;5.880;2022-07-29T07:02:06;7.63;;;5.70;;
1214;SDS011;597;51.998;5.880;2022-07-29T07:04:31;6.40;;;5.10;;
1214;SDS011;597;51.998;5.880;2022-07-29T07:06:57;11.40;;;5.20;;
1214;SDS011;597;51.998;5.880;2022-07-29T07:09:22;5.30;;;4.77;;
1214;SDS011;597;51.998;5.880;2022-07-29T07:11:48;6.17;;;4.47;;
1214;SDS011;597;51.998;5.880;2022-07-29T07:14:13;8.20;;;4.67;;
1214;SDS011;597;51.998;5.880;2022-07-29T07:16:38;7.00;;;4.50;;
1214;SDS011;597;51.998;5.880;2022-07-29T07:19:03;8.73;;;4.70;;
1214;SDS011;597;51.998;5.880;2022-07-29T07:24:06;8.83;;;4.70;;
1214;SDS011;597;51.998;5.880;2022-07-29T07:26:32;5.90;;;4.20;;
1214;SDS011;597;51.998;5.880;2022-07-29T07:28:57;5.73;;;4.53;;
1214;SDS011;597;51.998;5.880;2022-07-29T07:31:22;12.27;;;4.63;;
1214;SDS011;597;51.998;5.880;2022-07-29T07:33:48;7.63;;;4.77;;
1214;SDS011;597;51.998;5.880;2022-07-29T07:36:13;6.20;;;4.40;;
1214;SDS011;597;51.998;5.880;2022-07-29T07:38:38;5.07;;;4.10;;
1214;SDS011;597;51.998;5.880;2022-07-29T07:41:03;7.10;;;4.90;;
1214;SDS011;597;51.998;5.880;2022-07-29T07:43:28;4.90;;;4.10;;
1214;SDS011;597;51.998;5.880;2022-07-29T07:45:54;5.00;;;4.60;;
1214;SDS011;597;51.998;5.880;2022-07-29T07:48:19;4.63;;;4.03;;
1214;SDS011;597;51.998;5.880;2022-07-29T07:50:44;6.93;;;4.57;;
1214;SDS011;597;51.998;5.880;2022-07-29T07:53:09;6.53;;;4.30;;
1214;SDS011;597;51.998;5.880;2022-07-29T07:55:39;6.20;;;4.20;;
1214;SDS011;597;51.998;5.880;2022-07-29T07:58:05;8.67;;;4.50;;
1214;SDS011;597;51.998;5.880;2022-07-29T08:00:30;5.53;;;5.03;;
1214;SDS011;597;51.998;5.880;2022-07-29T08:02:57;5.23;;;3.93;;
1214;SDS011;597;51.998;5.880;2022-07-29T08:05:22;9.43;;;5.00;;
1214;SDS011;597;51.998;5.880;2022-07-29T08:07:47;9.20;;;4.57;;
1214;SDS011;597;51.998;5.880;2022-07-29T08:10:13;7.00;;;4.83;;
1214;SDS011;597;51.998;5.880;2022-07-29T08:12:38;13.83;;;4.73;;
1214;SDS011;597;51.998;5.880;2022-07-29T08:15:04;6.90;;;5.17;;
1214;SDS011;597;51.998;5.880;2022-07-29T08:17:29;6.27;;;4.73;;
1214;SDS011;597;51.998;5.880;2022-07-29T08:19:54;8.10;;;4.57;;
1214;SDS011;597;51.998;5.880;2022-07-29T08:22:19;5.97;;;4.20;;
1214;SDS011;597;51.998;5.880;2022-07-29T08:24:45;5.70;;;4.17;;
1214;SDS011;597;51.998;5.880;2022-07-29T08:27:21;4.43;;;4.07;;
1214;SDS011;597;51.998;5.880;2022-07-29T08:29:46;8.00;;;4.17;;
1214;SDS011;597;51.998;5.880;2022-07-29T08:32:11;5.00;;;4.23;;
1214;SDS011;597;51.998;5.880;2022-07-29T08:34:37;8.20;;;4.83;;
1214;SDS011;597;51.998;5.880;2022-07-29T08:37:02;8.73;;;4.83;;
1214;SDS011;597;51.998;5.880;2022-07-29T08:39:27;6.53;;;4.27;;
1214;SDS011;597;51.998;5.880;2022-07-29T08:41:52;7.23;;;5.20;;
1214;SDS011;597;51.998;5.880;2022-07-29T08:44:18;8.43;;;4.53;;
1214;SDS011;597;51.998;5.880;2022-07-29T08:46:44;5.67;;;4.17;;
1214;SDS011;597;51.998;5.880;2022-07-29T08:49:09;5.93;;;5.33;;
1214;SDS011;597;51.998;5.880;2022-07-29T08:51:35;5.97;;;4.47;;
1214;SDS011;597;51.998;5.880;2022-07-29T08:54:01;6.00;;;4.60;;
1214;SDS011;597;51.998;5.880;2022-07-29T08:56:26;6.47;;;5.20;;
1214;SDS011;597;51.998;5.880;2022-07-29T08:58:52;5.40;;;4.90;;
1214;SDS011;597;51.998;5.880;2022-07-29T09:01:21;9.30;;;4.70;;
1214;SDS011;597;51.998;5.880;2022-07-29T09:03:46;8.07;;;4.63;;
1214;SDS011;597;51.998;5.880;2022-07-29T09:06:13;6.40;;;4.83;;
1214;SDS011;597;51.998;5.880;2022-07-29T09:08:38;5.40;;;4.17;;
1214;SDS011;597;51.998;5.880;2022-07-29T09:11:03;5.30;;;4.80;;
1214;SDS011;597;51.998;5.880;2022-07-29T09:13:28;6.60;;;4.77;;
1214;SDS011;597;51.998;5.880;2022-07-29T09:15:54;5.03;;;4.23;;
1214;SDS011;597;51.998;5.880;2022-07-29T09:18:38;7.50;;;4.90;;
1214;SDS011;597;51.998;5.880;2022-07-29T09:21:04;5.10;;;4.60;;
1214;SDS011;597;51.998;5.880;2022-07-29T09:24:09;5.83;;;4.50;;
1214;SDS011;597;51.998;5.880;2022-07-29T09:26:35;5.93;;;4.10;;
1214;SDS011;597;51.998;5.880;2022-07-29T09:29:07;4.10;;;3.70;;
1214;SDS011;597;51.998;5.880;2022-07-29T09:31:33;7.10;;;4.53;;
1214;SDS011;597;51.998;5.880;2022-07-29T09:33:59;6.27;;;5.30;;
1214;SDS011;597;51.998;5.880;2022-07-29T09:36:27;5.27;;;4.17;;
1214;SDS011;597;51.998;5.880;2022-07-29T09:39:02;7.53;;;4.57;;
1214;SDS011;597;51.998;5.880;2022-07-29T09:41:28;7.53;;;4.77;;
1214;SDS011;597;51.998;5.880;2022-07-29T09:43:54;8.20;;;4.40;;
1214;SDS011;597;51.998;5.880;2022-07-29T09:46:19;5.60;;;4.30;;
1214;SDS011;597;51.998;5.880;2022-07-29T09:48:45;7.47;;;4.50;;
1214;SDS011;597;51.998;5.880;2022-07-29T09:51:30;7.03;;;4.23;;
1214;SDS011;597;51.998;5.880;2022-07-29T09:53:55;6.20;;;4.90;;
1214;SDS011;597;51.998;5.880;2022-07-29T09:56:25;7.20;;;4.10;;
1214;SDS011;597;51.998;5.880;2022-07-29T09:59:06;8.10;;;4.77;;
1214;SDS011;597;51.998;5.880;2022-07-29T10:01:31;8.93;;;4.53;;
1214;SDS011;597;51.998;5.880;2022-07-29T10:03:57;6.10;;;4.80;;
1214;SDS011;597;51.998;5.880;2022-07-29T10:06:22;5.13;;;4.50;;
1214;SDS011;597;51.998;5.880;2022-07-29T10:08:47;5.10;;;3.77;;
1214;SDS011;597;51.998;5.880;2022-07-29T10:11:15;6.80;;;4.73;;
1214;SDS011;597;51.998;5.880;2022-07-29T10:13:41;7.30;;;4.97;;
1214;SDS011;597;51.998;5.880;2022-07-29T10:16:07;5.37;;;4.50;;
1214;SDS011;597;51.998;5.880;2022-07-29T10:18:33;11.10;;;4.30;;
1214;SDS011;597;51.998;5.880;2022-07-29T10:20:59;7.63;;;3.87;;
1214;SDS011;597;51.998;5.880;2022-07-29T10:23:29;6.20;;;4.10;;
1214;SDS011;597;51.998;5.880;2022-07-29T10:25:54;7.03;;;4.27;;
1214;SDS011;597;51.998;5.880;2022-07-29T10:28:20;4.67;;;3.40;;
1214;SDS011;597;51.998;5.880;2022-07-29T10:30:45;3.47;;;3.10;;
1214;SDS011;597;51.998;5.880;2022-07-29T10:41:32;6.33;;;2.77;;
1214;SDS011;597;51.998;5.880;2022-07-29T10:46:25;6.17;;;2.70;;
1214;SDS011;597;51.998;5.880;2022-07-29T10:49:04;6.87;;;2.90;;
1214;SDS011;597;51.998;5.880;2022-07-29T10:54:13;10.53;;;3.50;;
1214;SDS011;597;51.998;5.880;2022-07-29T10:56:38;7.20;;;3.43;;
1214;SDS011;597;51.998;5.880;2022-07-29T11:01:49;6.63;;;3.33;;
1214;SDS011;597;51.998;5.880;2022-07-29T11:04:15;4.13;;;2.93;;
1214;SDS011;597;51.998;5.880;2022-07-29T11:09:24;6.23;;;3.40;;
1214;SDS011;597;51.998;5.880;2022-07-29T11:11:50;5.10;;;2.80;;
1214;SDS011;597;51.998;5.880;2022-07-29T11:14:15;5.13;;;2.80;;
1214;SDS011;597;51.998;5.880;2022-07-29T11:16:58;6.77;;;3.03;;
1214;SDS011;597;51.998;5.880;2022-07-29T11:19:24;4.50;;;3.63;;
1214;SDS011;597;51.998;5.880;2022-07-29T11:21:49;5.50;;;3.00;;
1214;SDS011;597;51.998;5.880;2022-07-29T11:24:16;6.27;;;3.43;;
1214;SDS011;597;51.998;5.880;2022-07-29T11:26:42;5.63;;;3.90;;
1214;SDS011;597;51.998;5.880;2022-07-29T11:29:20;6.77;;;3.77;;
1214;SDS011;597;51.998;5.880;2022-07-29T11:31:47;4.77;;;4.37;;
1214;SDS011;597;51.998;5.880;2022-07-29T11:39:31;7.47;;;4.07;;
1214;SDS011;597;51.998;5.880;2022-07-29T11:44:59;11.87;;;4.10;;
1214;SDS011;597;51.998;5.880;2022-07-29T11:47:31;5.40;;;3.47;;
1214;SDS011;597;51.998;5.880;2022-07-29T11:49:57;10.90;;;3.57;;
1214;SDS011;597;51.998;5.880;2022-07-29T11:52:23;6.83;;;3.73;;
1214;SDS011;597;51.998;5.880;2022-07-29T11:54:49;8.43;;;3.30;;
1214;SDS011;597;51.998;5.880;2022-07-29T11:57:15;5.03;;;3.43;;
1214;SDS011;597;51.998;5.880;2022-07-29T11:59:42;4.07;;;3.50;;
1214;SDS011;597;51.998;5.880;2022-07-29T12:02:07;6.67;;;3.53;;
1214;SDS011;597;51.998;5.880;2022-07-29T12:04:33;7.43;;;4.37;;
1214;SDS011;597;51.998;5.880;2022-07-29T12:06:59;6.93;;;3.10;;
1214;SDS011;597;51.998;5.880;2022-07-29T12:09:25;4.87;;;2.80;;
1214;SDS011;597;51.998;5.880;2022-07-29T12:11:56;5.43;;;3.77;;
1214;SDS011;597;51.998;5.880;2022-07-29T12:14:28;5.80;;;3.10;;
1214;SDS011;597;51.998;5.880;2022-07-29T12:16:54;4.77;;;3.27;;
1214;SDS011;597;51.998;5.880;2022-07-29T12:19:19;6.97;;;3.90;;
1214;SDS011;597;51.998;5.880;2022-07-29T12:21:49;6.97;;;3.73;;
1214;SDS011;597;51.998;5.880;2022-07-29T12:24:16;5.83;;;2.77;;
1214;SDS011;597;51.998;5.880;2022-07-29T12:26:55;5.57;;;3.10;;
1214;SDS011;597;51.998;5.880;2022-07-29T12:29:20;5.07;;;3.27;;
1214;SDS011;597;51.998;5.880;2022-07-29T12:31:45;4.10;;;3.20;;
1214;SDS011;597;51.998;5.880;2022-07-29T12:34:12;3.00;;;2.60;;
1214;SDS011;597;51.998;5.880;2022-07-29T12:36:37;4.63;;;2.90;;
1214;SDS011;597;51.998;5.880;2022-07-29T12:39:03;4.20;;;3.40;;
1214;SDS011;597;51.998;5.880;2022-07-29T12:41:29;4.70;;;2.77;;
1214;SDS011;597;51.998;5.880;2022-07-29T12:43:54;3.77;;;2.50;;
1214;SDS011;597;51.998;5.880;2022-07-29T12:46:20;5.20;;;2.80;;
1214;SDS011;597;51.998;5.880;2022-07-29T12:48:49;9.07;;;3.37;;
1214;SDS011;597;51.998;5.880;2022-07-29T12:51:15;4.20;;;2.97;;
1214;SDS011;597;51.998;5.880;2022-07-29T12:53:41;5.80;;;3.43;;
1214;SDS011;597;51.998;5.880;2022-07-29T12:56:26;3.60;;;2.97;;
1214;SDS011;597;51.998;5.880;2022-07-29T12:58:51;7.03;;;3.10;;
1214;SDS011;597;51.998;5.880;2022-07-29T13:01:17;11.77;;;2.90;;
1214;SDS011;597;51.998;5.880;2022-07-29T13:03:48;5.50;;;2.93;;
1214;SDS011;597;51.998;5.880;2022-07-29T13:09:08;4.63;;;2.77;;
1214;SDS011;597;51.998;5.880;2022-07-29T13:11:50;3.93;;;3.03;;
1214;SDS011;597;51.998;5.880;2022-07-29T13:14:35;3.50;;;2.70;;
1214;SDS011;597;51.998;5.880;2022-07-29T13:17:01;2.70;;;2.30;;
1214;SDS011;597;51.998;5.880;2022-07-29T13:21:58;5.30;;;3.00;;
1214;SDS011;597;51.998;5.880;2022-07-29T13:24:23;5.70;;;2.60;;
1214;SDS011;597;51.998;5.880;2022-07-29T13:26:49;5.70;;;2.87;;
1214;SDS011;597;51.998;5.880;2022-07-29T13:29:14;6.77;;;2.50;;
1214;SDS011;597;51.998;5.880;2022-07-29T13:31:39;7.23;;;3.03;;
1214;SDS011;597;51.998;5.880;2022-07-29T13:34:04;6.10;;;2.60;;
1214;SDS011;597;51.998;5.880;2022-07-29T13:36:30;3.17;;;2.40;;
1214;SDS011;597;51.998;5.880;2022-07-29T13:38:55;4.33;;;2.80;;
1214;SDS011;597;51.998;5.880;2022-07-29T13:41:20;5.07;;;3.03;;
1214;SDS011;597;51.998;5.880;2022-07-29T13:43:45;5.67;;;2.73;;
1214;SDS011;597;51.998;5.880;2022-07-29T13:46:11;5.47;;;3.33;;
1214;SDS011;597;51.998;5.880;2022-07-29T13:48:36;7.50;;;2.43;;
1214;SDS011;597;51.998;5.880;2022-07-29T13:51:02;5.17;;;3.10;;
1214;SDS011;597;51.998;5.880;2022-07-29T13:53:27;10.00;;;2.60;;
1214;SDS011;597;51.998;5.880;2022-07-29T13:55:53;5.83;;;2.73;;
1214;SDS011;597;51.998;5.880;2022-07-29T13:58:19;5.33;;;3.13;;
1214;SDS011;597;51.998;5.880;2022-07-29T14:00:44;6.33;;;2.80;;
1214;SDS011;597;51.998;5.880;2022-07-29T14:03:09;3.53;;;3.23;;
1214;SDS011;597;51.998;5.880;2022-07-29T14:05:35;5.67;;;3.20;;
1214;SDS011;597;51.998;5.880;2022-07-29T14:08:00;5.90;;;3.40;;
1214;SDS011;597;51.998;5.880;2022-07-29T14:10:26;3.40;;;2.80;;
1214;SDS011;597;51.998;5.880;2022-07-29T14:12:51;6.30;;;3.07;;
1214;SDS011;597;51.998;5.880;2022-07-29T14:15:16;3.87;;;3.00;;
1214;SDS011;597;51.998;5.880;2022-07-29T14:17:42;4.20;;;2.80;;
1214;SDS011;597;51.998;5.880;2022-07-29T14:20:07;11.17;;;3.53;;
1214;SDS011;597;51.998;5.880;2022-07-29T14:22:32;7.63;;;2.97;;
1214;SDS011;597;51.998;5.880;2022-07-29T14:24:58;7.83;;;4.20;;
1214;SDS011;597;51.998;5.880;2022-07-29T14:27:24;6.80;;;2.80;;
1214;SDS011;597;51.998;5.880;2022-07-29T14:29:49;3.20;;;2.70;;
1214;SDS011;597;51.998;5.880;2022-07-29T14:32:14;4.27;;;2.77;;
1214;SDS011;597;51.998;5.880;2022-07-29T14:34:40;5.80;;;3.10;;
1214;SDS011;597;51.998;5.880;2022-07-29T14:37:05;3.57;;;3.13;;
1214;SDS011;597;51.998;5.880;2022-07-29T14:39:31;4.53;;;2.83;;
1214;SDS011;597;51.998;5.880;2022-07-29T14:41:56;4.60;;;3.20;;
1214;SDS011;597;51.998;5.880;2022-07-29T14:44:22;6.00;;;2.87;;
1214;SDS011;597;51.998;5.880;2022-07-29T14:46:47;4.17;;;3.23;;
1214;SDS011;597;51.998;5.880;2022-07-29T14:49:12;11.80;;;3.50;;
1214;SDS011;597;51.998;5.880;2022-07-29T14:51:37;5.00;;;2.70;;
1214;SDS011;597;51.998;5.880;2022-07-29T14:54:03;6.47;;;3.10;;
1214;SDS011;597;51.998;5.880;2022-07-29T14:56:28;8.10;;;3.40;;
1214;SDS011;597;51.998;5.880;2022-07-29T14:58:55;5.37;;;2.70;;
1214;SDS011;597;51.998;5.880;2022-07-29T15:01:20;4.47;;;2.50;;
1214;SDS011;597;51.998;5.880;2022-07-29T15:03:45;7.60;;;3.47;;
1214;SDS011;597;51.998;5.880;2022-07-29T15:06:10;4.90;;;2.67;;
1214;SDS011;597;51.998;5.880;2022-07-29T15:08:36;3.87;;;2.57;;
1214;SDS011;597;51.998;5.880;2022-07-29T15:11:01;4.50;;;3.03;;
1214;SDS011;597;51.998;5.880;2022-07-29T15:13:26;7.00;;;3.33;;
1214;SDS011;597;51.998;5.880;2022-07-29T15:15:52;7.90;;;2.87;;
1214;SDS011;597;51.998;5.880;2022-07-29T15:18:17;3.67;;;2.90;;
1214;SDS011;597;51.998;5.880;2022-07-29T15:20:43;4.73;;;2.80;;
1214;SDS011;597;51.998;5.880;2022-07-29T15:23:11;4.10;;;2.87;;
1214;SDS011;597;51.998;5.880;2022-07-29T15:25:37;7.00;;;2.90;;
1214;SDS011;597;51.998;5.880;2022-07-29T15:28:03;9.20;;;3.07;;
1214;SDS011;597;51.998;5.880;2022-07-29T15:30:32;5.53;;;2.87;;
1214;SDS011;597;51.998;5.880;2022-07-29T15:32:58;5.40;;;3.60;;
1214;SDS011;597;51.998;5.880;2022-07-29T15:35:23;7.87;;;3.47;;
1214;SDS011;597;51.998;5.880;2022-07-29T15:37:48;9.77;;;3.50;;
1214;SDS011;597;51.998;5.880;2022-07-29T15:40:13;7.40;;;3.30;;
1214;SDS011;597;51.998;5.880;2022-07-29T15:42:38;11.13;;;3.60;;
1214;SDS011;597;51.998;5.880;2022-07-29T15:45:04;5.23;;;3.10;;
1214;SDS011;597;51.998;5.880;2022-07-29T15:47:29;4.03;;;3.37;;
1214;SDS011;597;51.998;5.880;2022-07-29T15:49:54;4.23;;;3.33;;
1214;SDS011;597;51.998;5.880;2022-07-29T15:52:20;4.60;;;3.10;;
1214;SDS011;597;51.998;5.880;2022-07-29T15:54:45;6.60;;;3.43;;
1214;SDS011;597;51.998;5.880;2022-07-29T15:57:11;5.13;;;3.60;;
1214;SDS011;597;51.998;5.880;2022-07-29T15:59:37;6.63;;;3.37;;
1214;SDS011;597;51.998;5.880;2022-07-29T16:02:02;4.47;;;3.43;;
1214;SDS011;597;51.998;5.880;2022-07-29T16:04:28;9.00;;;3.77;;
1214;SDS011;597;51.998;5.880;2022-07-29T16:06:56;6.97;;;3.50;;